createdAt,value
2023-02-07T00:00:42.758Z,0.30
2023-02-07T00:03:45.376Z,0.18
2023-02-07T00:06:46.883Z,0.04
2023-02-07T00:09:48.371Z,-0.02
2023-02-07T00:12:50.195Z,-0.10
2023-02-07T00:15:51.699Z,-0.25
2023-02-07T00:18:55.556Z,-0.40
2023-02-07T00:21:57.048Z,-0.43
2023-02-07T00:24:58.537Z,-0.47
2023-02-07T00:28:00.203Z,-0.48
2023-02-07T00:31:20.846Z,-0.60
2023-02-07T00:34:22.400Z,-0.72
2023-02-07T00:37:23.881Z,-0.78
2023-02-07T00:40:25.412Z,-0.80
2023-02-07T00:43:29.873Z,-0.85
2023-02-07T00:46:32.212Z,-0.89
2023-02-07T00:49:33.776Z,-0.93
2023-02-07T00:52:35.279Z,-0.96
2023-02-07T00:55:37.021Z,-1.02
2023-02-07T00:58:38.620Z,-1.08
2023-02-07T01:01:41.281Z,-1.17
2023-02-07T01:04:42.894Z,-1.26
2023-02-07T01:07:44.439Z,-1.31
2023-02-07T01:10:46.305Z,-1.36
2023-02-07T01:13:47.830Z,-1.38
2023-02-07T01:16:50.046Z,-1.43
2023-02-07T01:19:56.668Z,-1.53
2023-02-07T01:22:58.189Z,-1.52
2023-02-07T01:25:59.654Z,-1.57
2023-02-07T01:29:02.467Z,-1.62
2023-02-07T01:32:04.138Z,-1.63
2023-02-07T01:35:05.944Z,-1.61
2023-02-07T01:38:07.997Z,-1.59
2023-02-07T01:41:10.602Z,-1.65
2023-02-07T01:44:24.442Z,-1.69
2023-02-07T01:47:26.943Z,-1.75
2023-02-07T01:50:29.294Z,-1.78
2023-02-07T01:53:31.417Z,-1.86
2023-02-07T01:56:36.136Z,-1.89
2023-02-07T01:59:40.896Z,-1.84
2023-02-07T02:02:43.002Z,-1.81
2023-02-07T02:05:46.359Z,-1.78
2023-02-07T02:08:49.841Z,-1.85
2023-02-07T02:12:22.586Z,-1.86
2023-02-07T02:15:33.678Z,-1.84
2023-02-07T02:19:29.531Z,-1.85
2023-02-07T02:23:05.684Z,-1.89
2023-02-07T02:26:37.785Z,-1.90
2023-02-07T02:30:06.993Z,-1.92
2023-02-07T02:33:09.096Z,-2.03
2023-02-07T02:36:25.725Z,-2.10
2023-02-07T02:39:40.867Z,-2.10
2023-02-07T02:42:54.054Z,-2.15
2023-02-07T02:46:01.689Z,-2.19
2023-02-07T02:49:06.476Z,-2.30
2023-02-07T02:52:08.052Z,-2.20
2023-02-07T02:55:09.643Z,-2.18
2023-02-07T02:58:20.134Z,-2.19
2023-02-07T03:01:35.987Z,-2.21
2023-02-07T03:04:54.885Z,-2.12
2023-02-07T03:08:25.506Z,-2.10
2023-02-07T03:11:32.289Z,-2.12
2023-02-07T03:14:45.523Z,-2.14
2023-02-07T03:18:08.016Z,-2.18
2023-02-07T03:21:21.880Z,-2.23
2023-02-07T03:24:29.013Z,-2.26
2023-02-07T03:27:32.226Z,-2.39
2023-02-07T03:30:36.047Z,-2.35
2023-02-07T03:33:38.348Z,-2.33
2023-02-07T03:36:50.514Z,-2.42
2023-02-07T03:39:52.503Z,-2.44
2023-02-07T03:43:04.660Z,-2.48
2023-02-07T03:46:09.492Z,-2.42
2023-02-07T03:49:11.579Z,-2.39
2023-02-07T03:52:13.042Z,-2.38
2023-02-07T03:55:14.512Z,-2.41
2023-02-07T03:58:15.961Z,-2.44
2023-02-07T04:01:17.663Z,-2.43
2023-02-07T04:04:19.317Z,-2.48
2023-02-07T04:07:20.858Z,-2.46
2023-02-07T04:10:22.558Z,-2.49
2023-02-07T04:13:24.047Z,-2.46
2023-02-07T04:16:25.965Z,-2.52
2023-02-07T04:19:27.462Z,-2.54
2023-02-07T04:22:29.599Z,-2.52
2023-02-07T04:25:31.199Z,-2.53
2023-02-07T04:28:32.969Z,-2.55
2023-02-07T04:31:34.649Z,-2.56
2023-02-07T04:34:36.080Z,-2.56
2023-02-07T04:37:37.617Z,-2.62
2023-02-07T04:40:39.327Z,-2.72
2023-02-07T04:43:40.811Z,-2.72
2023-02-07T04:46:42.294Z,-2.69
2023-02-07T04:49:43.882Z,-2.73
2023-02-07T04:52:45.292Z,-2.73
2023-02-07T04:55:51.159Z,-2.76
2023-02-07T04:58:52.875Z,-2.78
2023-02-07T05:01:54.385Z,-2.72
2023-02-07T05:04:55.881Z,-2.74
2023-02-07T05:07:57.455Z,-2.69
2023-02-07T05:10:59.065Z,-2.71
2023-02-07T05:14:00.574Z,-2.69
2023-02-07T05:17:02.063Z,-2.68
2023-02-07T05:20:03.638Z,-2.65
2023-02-07T05:23:05.160Z,-2.62
2023-02-07T05:26:06.729Z,-2.66
2023-02-07T05:29:08.511Z,-2.67
2023-02-07T05:32:32.809Z,-2.71
2023-02-07T05:35:40.338Z,-2.76
2023-02-07T05:38:42.008Z,-2.74
2023-02-07T05:41:43.460Z,-2.70
2023-02-07T05:44:45.366Z,-2.63
2023-02-07T05:47:47.249Z,-2.62
2023-02-07T05:50:48.793Z,-2.66
2023-02-07T05:53:50.290Z,-2.67
2023-02-07T05:56:51.835Z,-2.63
2023-02-07T05:59:53.265Z,-2.64
2023-02-07T06:02:54.811Z,-2.64
2023-02-07T06:05:56.272Z,-2.63
2023-02-07T06:08:57.791Z,-2.67
2023-02-07T06:11:59.291Z,-2.65
2023-02-07T06:15:00.905Z,-2.65
2023-02-07T06:18:02.474Z,-2.65
2023-02-07T06:21:04.500Z,-2.66
2023-02-07T06:24:06.876Z,-2.69
2023-02-07T06:27:08.397Z,-2.69
2023-02-07T06:30:12.448Z,-2.74
2023-02-07T06:33:13.859Z,-2.72
2023-02-07T06:36:15.322Z,-2.72
2023-02-07T06:39:16.775Z,-2.69
2023-02-07T06:42:18.295Z,-2.67
2023-02-07T06:45:20.026Z,-2.60
2023-02-07T06:48:21.833Z,-2.59
2023-02-07T06:51:23.534Z,-2.59
2023-02-07T06:54:25.116Z,-2.53
2023-02-07T06:57:26.602Z,-2.53
2023-02-07T07:00:29.791Z,-2.54
2023-02-07T07:03:31.428Z,-2.53
2023-02-07T07:06:33.534Z,-2.44
2023-02-07T07:09:35.174Z,-2.44
2023-02-07T07:12:36.801Z,-2.46
2023-02-07T07:15:38.462Z,-2.53
2023-02-07T07:18:40.270Z,-2.51
2023-02-07T07:21:41.796Z,-2.47
2023-02-07T07:24:43.691Z,-2.41
2023-02-07T07:27:45.409Z,-2.37
2023-02-07T07:30:47.082Z,-2.30
2023-02-07T07:33:48.612Z,-2.26
2023-02-07T07:36:50.168Z,-2.18
2023-02-07T07:39:51.686Z,-2.14
2023-02-07T07:42:53.234Z,-2.07
2023-02-07T07:46:04.261Z,-2.01
2023-02-07T07:49:05.782Z,-1.93
2023-02-07T07:52:07.613Z,-1.84
2023-02-07T07:55:10.153Z,-1.79
2023-02-07T07:58:11.680Z,-1.60
2023-02-07T08:01:13.212Z,-1.51
2023-02-07T08:04:14.689Z,-1.46
2023-02-07T08:07:16.197Z,-1.47
2023-02-07T08:10:17.661Z,-1.34
2023-02-07T08:13:20.106Z,-1.21
2023-02-07T08:16:21.636Z,-1.13
2023-02-07T08:19:24.277Z,-1.00
2023-02-07T08:22:25.828Z,-0.91
2023-02-07T08:25:27.428Z,-0.81
2023-02-07T08:28:29.519Z,-0.74
2023-02-07T08:31:31.228Z,-0.71
2023-02-07T08:34:37.400Z,-0.61
2023-02-07T08:37:39.271Z,-0.47
2023-02-07T08:40:41.122Z,-0.41
2023-02-07T08:43:42.829Z,-0.30
2023-02-07T08:46:44.270Z,-0.22
2023-02-07T08:49:45.828Z,-0.23
2023-02-07T08:52:47.290Z,-0.23
2023-02-07T08:55:48.872Z,-0.23
2023-02-07T08:58:50.302Z,-0.26
2023-02-07T09:01:51.976Z,-0.28
2023-02-07T09:04:53.670Z,-0.28
2023-02-07T09:07:55.102Z,-0.11
2023-02-07T09:10:56.654Z,-0.16
2023-02-07T09:13:58.127Z,-0.21
2023-02-07T09:16:59.697Z,-0.15
2023-02-07T09:20:01.369Z,-0.08
2023-02-07T09:23:17.839Z,-0.13
2023-02-07T09:26:22.087Z,-0.12
2023-02-07T09:29:23.989Z,-0.04
2023-02-07T09:32:25.653Z,-0.04
2023-02-07T09:35:27.236Z,-0.05
2023-02-07T09:38:29.205Z,-0.03
2023-02-07T09:41:41.348Z,0.10
2023-02-07T09:45:03.546Z,0.18
2023-02-07T09:48:15.577Z,0.24
2023-02-07T09:51:20.898Z,0.25
2023-02-07T09:54:33.069Z,0.22
2023-02-07T09:57:44.416Z,0.28
2023-02-07T10:00:53.839Z,0.36
2023-02-07T10:04:07.537Z,0.50
2023-02-07T10:07:13.191Z,0.69
2023-02-07T10:10:24.254Z,0.87
2023-02-07T10:13:31.557Z,0.99
2023-02-07T10:16:44.536Z,0.99
2023-02-07T10:19:58.196Z,0.97
2023-02-07T10:23:05.961Z,0.85
2023-02-07T10:26:10.437Z,0.93
2023-02-07T10:30:05.001Z,1.08
2023-02-07T10:33:14.426Z,1.32
2023-02-07T10:36:17.311Z,1.37
2023-02-07T10:39:21.784Z,1.49
2023-02-07T10:42:24.398Z,1.54
2023-02-07T10:45:25.866Z,1.64
2023-02-07T10:48:28.363Z,1.70
2023-02-07T10:51:29.789Z,1.75
2023-02-07T10:54:51.383Z,1.83
2023-02-07T10:58:01.455Z,2.02
2023-02-07T11:01:06.117Z,2.15
2023-02-07T11:04:23.743Z,2.27
2023-02-07T11:07:26.408Z,2.43
2023-02-07T11:10:48.818Z,2.64
2023-02-07T11:13:52.108Z,2.72
2023-02-07T11:16:59.167Z,2.64
2023-02-07T11:20:16.686Z,2.78
2023-02-07T11:23:18.294Z,2.97
2023-02-07T11:26:21.765Z,3.04
2023-02-07T11:29:25.822Z,3.10
2023-02-07T11:32:28.740Z,3.10
2023-02-07T11:35:30.301Z,3.24
2023-02-07T11:38:36.136Z,3.16
2023-02-07T11:41:38.721Z,3.04
2023-02-07T11:44:45.837Z,3.12
2023-02-07T11:47:49.569Z,3.15
2023-02-07T11:50:56.617Z,3.21
2023-02-07T11:54:02.224Z,3.23
2023-02-07T11:57:13.109Z,3.14
2023-02-07T12:00:23.536Z,3.17
2023-02-07T12:03:28.254Z,3.12
2023-02-07T12:06:43.962Z,3.19
2023-02-07T12:10:05.826Z,3.09
2023-02-07T12:13:12.115Z,3.25
2023-02-07T12:16:21.380Z,3.45
2023-02-07T12:19:29.909Z,3.28
2023-02-07T12:23:21.512Z,3.26
2023-02-07T12:26:47.613Z,3.42
2023-02-07T12:30:04.470Z,3.45
2023-02-07T12:33:31.645Z,3.44
2023-02-07T12:36:53.088Z,3.55
2023-02-07T12:40:12.521Z,3.42
2023-02-07T12:43:38.592Z,3.45
2023-02-07T12:46:58.033Z,3.47
2023-02-07T12:50:08.367Z,3.57
2023-02-07T12:53:36.840Z,3.68
2023-02-07T12:57:03.194Z,3.74
2023-02-07T13:00:28.715Z,3.85
2023-02-07T13:04:07.320Z,3.92
2023-02-07T13:07:48.453Z,3.84
2023-02-07T13:10:58.979Z,3.81
2023-02-07T13:14:30.125Z,4.03
2023-02-07T13:17:43.437Z,4.34
2023-02-07T13:20:47.904Z,4.55
2023-02-07T13:23:49.574Z,4.60
2023-02-07T13:27:17.404Z,4.55
2023-02-07T13:30:20.634Z,4.46
2023-02-07T13:33:34.852Z,4.43
2023-02-07T13:36:42.712Z,4.42
2023-02-07T13:39:57.133Z,4.26
2023-02-07T13:43:09.534Z,4.21
2023-02-07T13:46:42.681Z,4.23
2023-02-07T13:50:01.890Z,4.24
2023-02-07T13:53:15.414Z,4.27
2023-02-07T13:56:35.828Z,4.13
2023-02-07T13:59:38.931Z,4.22
2023-02-07T14:02:44.910Z,4.31
2023-02-07T14:05:46.622Z,4.35
2023-02-07T14:09:01.093Z,4.34
2023-02-07T14:12:06.634Z,4.36
2023-02-07T14:15:41.864Z,4.24
2023-02-07T14:18:49.747Z,4.19
2023-02-07T14:22:13.758Z,4.14
2023-02-07T14:25:42.431Z,4.10
2023-02-07T14:28:46.124Z,4.11
2023-02-07T14:31:49.523Z,4.08
2023-02-07T14:35:06.505Z,4.18
2023-02-07T14:38:07.901Z,4.27
2023-02-07T14:41:12.719Z,4.43
2023-02-07T14:44:37.805Z,4.34
2023-02-07T14:47:39.329Z,4.23
2023-02-07T14:50:41.010Z,4.24
2023-02-07T14:53:45.188Z,4.44
2023-02-07T14:56:50.107Z,4.85
2023-02-07T15:00:02.171Z,5.19
2023-02-07T15:03:12.540Z,4.99
2023-02-07T15:06:30.681Z,4.69
2023-02-07T15:09:34.811Z,4.39
2023-02-07T15:12:36.396Z,4.25
2023-02-07T15:15:47.616Z,4.14
2023-02-07T15:18:49.256Z,3.96
2023-02-07T15:21:51.278Z,3.71
2023-02-07T15:24:57.517Z,3.49
2023-02-07T15:28:27.050Z,3.33
2023-02-07T15:31:30.450Z,3.24
2023-02-07T15:34:33.499Z,3.07
2023-02-07T15:37:34.991Z,3.02
2023-02-07T15:40:36.528Z,2.98
2023-02-07T15:43:38.086Z,2.82
2023-02-07T15:46:54.627Z,2.74
2023-02-07T15:50:04.286Z,2.68
2023-02-07T15:53:08.595Z,2.56
2023-02-07T15:56:15.178Z,2.53
2023-02-07T15:59:21.112Z,2.49
2023-02-07T16:02:32.979Z,2.41
2023-02-07T16:05:37.906Z,2.30
2023-02-07T16:08:42.371Z,2.25
2023-02-07T16:11:43.916Z,2.14
2023-02-07T16:14:45.387Z,2.06
2023-02-07T16:17:46.969Z,2.05
2023-02-07T16:20:48.617Z,1.94
2023-02-07T16:23:53.738Z,1.87
2023-02-07T16:26:56.078Z,1.73
2023-02-07T16:29:59.408Z,1.58
2023-02-07T16:33:05.638Z,1.49
2023-02-07T16:36:17.936Z,1.37
2023-02-07T16:39:20.327Z,1.18
2023-02-07T16:42:21.830Z,1.00
2023-02-07T16:45:26.426Z,0.76
2023-02-07T16:48:28.076Z,0.47
2023-02-07T16:51:29.564Z,0.41
2023-02-07T16:54:31.320Z,0.26
2023-02-07T16:57:32.803Z,0.23
2023-02-07T17:00:34.624Z,0.18
2023-02-07T17:03:36.070Z,0.08
2023-02-07T17:06:38.302Z,-0.04
2023-02-07T17:09:39.852Z,-0.08
2023-02-07T17:12:43.071Z,-0.12
2023-02-07T17:15:44.553Z,-0.16
2023-02-07T17:18:46.305Z,-0.16
2023-02-07T17:21:49.423Z,-0.18
2023-02-07T17:24:53.633Z,-0.30
2023-02-07T17:27:55.778Z,-0.44
2023-02-07T17:30:57.287Z,-0.46
2023-02-07T17:33:59.402Z,-0.47
2023-02-07T17:37:00.941Z,-0.52
2023-02-07T17:40:02.559Z,-0.68
2023-02-07T17:43:05.110Z,-0.71
2023-02-07T17:46:21.832Z,-0.76
2023-02-07T17:49:23.261Z,-0.79
2023-02-07T17:52:24.777Z,-0.83
2023-02-07T17:55:26.298Z,-0.86
2023-02-07T17:58:29.498Z,-0.95
2023-02-07T18:01:32.316Z,-1.06
2023-02-07T18:04:33.794Z,-1.10
2023-02-07T18:07:35.443Z,-1.11
2023-02-07T18:10:37.232Z,-1.17
2023-02-07T18:13:39.435Z,-1.16
2023-02-07T18:16:41.533Z,-1.13
2023-02-07T18:19:43.046Z,-1.14
2023-02-07T18:22:44.573Z,-1.25
2023-02-07T18:25:50.697Z,-1.24
2023-02-07T18:28:52.390Z,-1.24
2023-02-07T18:31:53.918Z,-1.26
2023-02-07T18:34:55.457Z,-1.29
2023-02-07T18:37:56.927Z,-1.28
2023-02-07T18:40:58.421Z,-1.32
2023-02-07T18:43:59.884Z,-1.34
2023-02-07T18:47:01.484Z,-1.48
2023-02-07T18:50:03.108Z,-1.50
2023-02-07T18:53:05.408Z,-1.47
2023-02-07T18:56:09.947Z,-1.54
2023-02-07T18:59:11.442Z,-1.59
2023-02-07T19:02:13.221Z,-1.58
2023-02-07T19:05:14.913Z,-1.39
2023-02-07T19:08:16.338Z,-1.21
2023-02-07T19:11:19.340Z,-1.12
2023-02-07T19:14:24.050Z,-0.99
2023-02-07T19:17:25.622Z,-0.87
2023-02-07T19:20:27.111Z,-0.80
2023-02-07T19:23:28.657Z,-0.77
2023-02-07T19:26:30.442Z,-0.88
2023-02-07T19:29:33.461Z,-1.01
2023-02-07T19:32:35.224Z,-1.13
2023-02-07T19:35:38.122Z,-1.14
2023-02-07T19:38:39.897Z,-1.03
2023-02-07T19:41:41.381Z,-1.02
2023-02-07T19:44:43.014Z,-1.19
2023-02-07T19:47:44.462Z,-1.23
2023-02-07T19:50:45.999Z,-1.20
2023-02-07T19:53:49.941Z,-1.25
2023-02-07T19:56:51.416Z,-1.28
2023-02-07T19:59:52.930Z,-1.36
2023-02-07T20:02:54.356Z,-1.42
2023-02-07T20:06:00.089Z,-1.41
2023-02-07T20:09:05.611Z,-1.44
2023-02-07T20:12:07.460Z,-1.52
2023-02-07T20:15:09.607Z,-1.53
2023-02-07T20:18:13.225Z,-1.52
2023-02-07T20:21:17.254Z,-1.56
2023-02-07T20:24:19.407Z,-1.48
2023-02-07T20:27:21.044Z,-1.46
2023-02-07T20:30:22.499Z,-1.36
2023-02-07T20:33:24.262Z,-1.32
2023-02-07T20:36:26.429Z,-1.40
2023-02-07T20:39:30.593Z,-1.49
2023-02-07T20:42:32.018Z,-1.57
2023-02-07T20:45:33.619Z,-1.65
2023-02-07T20:48:35.274Z,-1.78
2023-02-07T20:51:37.936Z,-1.73
2023-02-07T20:54:39.384Z,-1.75
2023-02-07T20:57:40.934Z,-1.74
2023-02-07T21:00:42.510Z,-1.74
2023-02-07T21:03:46.666Z,-1.70
2023-02-07T21:06:48.602Z,-1.62
2023-02-07T21:09:51.101Z,-1.59
2023-02-07T21:12:52.601Z,-1.56
2023-02-07T21:16:03.074Z,-1.54
2023-02-07T21:19:05.136Z,-1.64
2023-02-07T21:22:06.821Z,-1.70
2023-02-07T21:25:08.373Z,-1.73
2023-02-07T21:28:10.604Z,-1.82
2023-02-07T21:31:19.928Z,-1.84
2023-02-07T21:34:22.212Z,-1.83
2023-02-07T21:37:23.849Z,-1.85
2023-02-07T21:40:26.327Z,-1.90
2023-02-07T21:43:27.892Z,-1.91
2023-02-07T21:46:34.956Z,-2.01
2023-02-07T21:49:37.772Z,-2.13
2023-02-07T21:52:39.798Z,-2.16
2023-02-07T21:55:41.312Z,-2.19
2023-02-07T21:58:43.398Z,-2.18
2023-02-07T22:01:46.377Z,-2.25
2023-02-07T22:04:47.894Z,-2.32
2023-02-07T22:07:49.358Z,-2.34
2023-02-07T22:10:50.889Z,-2.31
2023-02-07T22:13:53.671Z,-2.34
2023-02-07T22:16:57.372Z,-2.35
2023-02-07T22:19:58.838Z,-2.38
2023-02-07T22:23:00.332Z,-2.43
2023-02-07T22:26:02.461Z,-2.44
2023-02-07T22:29:06.234Z,-2.48
2023-02-07T22:32:07.740Z,-2.52
2023-02-07T22:35:09.194Z,-2.60
2023-02-07T22:38:13.159Z,-2.63
2023-02-07T22:41:15.729Z,-2.60
2023-02-07T22:44:17.220Z,-2.50
2023-02-07T22:47:18.718Z,-2.39
2023-02-07T22:50:20.573Z,-2.30
2023-02-07T22:53:22.140Z,-2.28
2023-02-07T22:56:24.140Z,-2.26
2023-02-07T22:59:25.567Z,-2.22
2023-02-07T23:02:28.240Z,-2.16
2023-02-07T23:05:29.781Z,-2.08
2023-02-07T23:08:31.465Z,-2.11
2023-02-07T23:11:33.567Z,-2.04
2023-02-07T23:14:35.072Z,-2.03
2023-02-07T23:17:36.543Z,-1.94
2023-02-07T23:20:38.139Z,-1.79
2023-02-07T23:23:40.287Z,-1.76
2023-02-07T23:26:41.870Z,-1.73
2023-02-07T23:29:43.358Z,-1.77
2023-02-07T23:32:44.818Z,-1.80
2023-02-07T23:35:46.311Z,-1.82
2023-02-07T23:38:48.782Z,-1.84
2023-02-07T23:41:50.308Z,-1.84
2023-02-07T23:44:51.786Z,-1.85
2023-02-07T23:47:53.802Z,-1.88
2023-02-07T23:50:57.578Z,-1.98
2023-02-07T23:53:59.052Z,-2.02
2023-02-07T23:57:00.696Z,-2.10
